sensor_id;sensor_type;location;lat;lon;timestamp;temperature;humidity
6879;DHT22;3478;51.462;7.338;2023-04-03T00:00:25;3.30;99.90
6879;DHT22;3478;51.462;7.338;2023-04-03T00:05:29;3.20;99.90
6879;DHT22;3478;51.462;7.338;2023-04-03T00:10:30;3.20;99.90
6879;DHT22;3478;51.462;7.338;2023-04-03T00:15:35;3.00;99.90
6879;DHT22;3478;51.462;7.338;2023-04-03T00:20:38;2.90;99.90
6879;DHT22;3478;51.462;7.338;2023-04-03T00:25:40;2.90;99.90
6879;DHT22;3478;51.462;7.338;2023-04-03T00:30:42;3.00;99.90
6879;DHT22;3478;51.462;7.338;2023-04-03T00:35:45;3.00;99.90
6879;DHT22;3478;51.462;7.338;2023-04-03T00:40:48;3.00;99.90
6879;DHT22;3478;51.462;7.338;2023-04-03T00:45:52;2.90;99.90
6879;DHT22;3478;51.462;7.338;2023-04-03T00:50:55;2.90;99.90
6879;DHT22;3478;51.462;7.338;2023-04-03T00:55:58;2.80;99.90
6879;DHT22;3478;51.462;7.338;2023-04-03T01:01:05;2.80;99.90
6879;DHT22;3478;51.462;7.338;2023-04-03T01:06:09;2.80;99.90
6879;DHT22;3478;51.462;7.338;2023-04-03T01:11:11;2.80;99.90
6879;DHT22;3478;51.462;7.338;2023-04-03T01:16:13;2.80;99.90
6879;DHT22;3478;51.462;7.338;2023-04-03T01:21:45;2.90;99.90
6879;DHT22;3478;51.462;7.338;2023-04-03T01:26:51;2.90;99.90
6879;DHT22;3478;51.462;7.338;2023-04-03T01:31:57;2.90;99.90
6879;DHT22;3478;51.462;7.338;2023-04-03T01:36:59;2.80;99.90
6879;DHT22;3478;51.462;7.338;2023-04-03T01:42:01;2.80;99.90
6879;DHT22;3478;51.462;7.338;2023-04-03T01:47:06;2.80;99.90
6879;DHT22;3478;51.462;7.338;2023-04-03T01:52:08;2.90;99.90
6879;DHT22;3478;51.462;7.338;2023-04-03T01:57:10;2.90;99.90
6879;DHT22;3478;51.462;7.338;2023-04-03T02:02:15;2.80;99.90
6879;DHT22;3478;51.462;7.338;2023-04-03T02:07:17;2.90;99.90
6879;DHT22;3478;51.462;7.338;2023-04-03T02:12:19;2.90;99.90
6879;DHT22;3478;51.462;7.338;2023-04-03T02:17:22;2.90;99.90
6879;DHT22;3478;51.462;7.338;2023-04-03T02:22:24;2.80;99.90
6879;DHT22;3478;51.462;7.338;2023-04-03T02:27:26;2.70;99.90
6879;DHT22;3478;51.462;7.338;2023-04-03T02:32:29;2.70;99.90
6879;DHT22;3478;51.462;7.338;2023-04-03T02:37:31;2.70;99.90
6879;DHT22;3478;51.462;7.338;2023-04-03T02:42:33;2.60;99.90
6879;DHT22;3478;51.462;7.338;2023-04-03T02:47:36;2.60;99.90
6879;DHT22;3478;51.462;7.338;2023-04-03T02:52:38;2.60;99.90
6879;DHT22;3478;51.462;7.338;2023-04-03T02:57:40;2.60;99.90
6879;DHT22;3478;51.462;7.338;2023-04-03T03:02:43;2.60;99.90
6879;DHT22;3478;51.462;7.338;2023-04-03T03:07:45;2.60;99.90
6879;DHT22;3478;51.462;7.338;2023-04-03T03:12:47;2.60;99.90
6879;DHT22;3478;51.462;7.338;2023-04-03T03:17:51;2.50;99.90
6879;DHT22;3478;51.462;7.338;2023-04-03T03:22:53;2.50;99.90
6879;DHT22;3478;51.462;7.338;2023-04-03T03:27:55;2.50;99.90
6879;DHT22;3478;51.462;7.338;2023-04-03T03:32:58;2.50;99.90
6879;DHT22;3478;51.462;7.338;2023-04-03T03:38:00;2.50;99.90
6879;DHT22;3478;51.462;7.338;2023-04-03T03:43:02;2.40;99.90
6879;DHT22;3478;51.462;7.338;2023-04-03T03:48:05;2.30;99.90
6879;DHT22;3478;51.462;7.338;2023-04-03T03:53:07;2.30;99.90
6879;DHT22;3478;51.462;7.338;2023-04-03T03:58:09;2.30;99.90
6879;DHT22;3478;51.462;7.338;2023-04-03T04:03:12;2.20;99.90
6879;DHT22;3478;51.462;7.338;2023-04-03T04:08:14;2.30;99.90
6879;DHT22;3478;51.462;7.338;2023-04-03T04:13:16;2.20;99.90
6879;DHT22;3478;51.462;7.338;2023-04-03T04:18:20;2.20;99.90
6879;DHT22;3478;51.462;7.338;2023-04-03T04:23:23;2.20;99.90
6879;DHT22;3478;51.462;7.338;2023-04-03T04:28:25;2.20;99.90
6879;DHT22;3478;51.462;7.338;2023-04-03T04:33:28;2.10;99.90
6879;DHT22;3478;51.462;7.338;2023-04-03T04:38:30;2.00;99.90
6879;DHT22;3478;51.462;7.338;2023-04-03T04:43:33;1.90;99.90
6879;DHT22;3478;51.462;7.338;2023-04-03T04:48:36;1.90;99.90
6879;DHT22;3478;51.462;7.338;2023-04-03T04:53:38;1.90;99.90
6879;DHT22;3478;51.462;7.338;2023-04-03T04:58:40;1.80;99.90
6879;DHT22;3478;51.462;7.338;2023-04-03T05:03:43;1.70;99.90
6879;DHT22;3478;51.462;7.338;2023-04-03T05:08:45;1.70;99.90
6879;DHT22;3478;51.462;7.338;2023-04-03T05:13:47;1.70;99.90
6879;DHT22;3478;51.462;7.338;2023-04-03T05:18:50;1.80;99.90
6879;DHT22;3478;51.462;7.338;2023-04-03T05:23:52;1.80;99.90
6879;DHT22;3478;51.462;7.338;2023-04-03T05:28:54;1.80;99.90
6879;DHT22;3478;51.462;7.338;2023-04-03T05:33:58;1.80;99.90
6879;DHT22;3478;51.462;7.338;2023-04-03T05:39:00;1.90;99.90
6879;DHT22;3478;51.462;7.338;2023-04-03T05:44:02;1.90;99.90
6879;DHT22;3478;51.462;7.338;2023-04-03T05:49:05;1.90;99.90
6879;DHT22;3478;51.462;7.338;2023-04-03T05:54:12;1.90;99.90
6879;DHT22;3478;51.462;7.338;2023-04-03T05:59:15;2.00;99.90
6879;DHT22;3478;51.462;7.338;2023-04-03T06:04:20;2.00;99.90
6879;DHT22;3478;51.462;7.338;2023-04-03T06:09:24;2.20;99.90
6879;DHT22;3478;51.462;7.338;2023-04-03T06:14:26;2.30;99.90
6879;DHT22;3478;51.462;7.338;2023-04-03T06:19:30;2.20;99.90
6879;DHT22;3478;51.462;7.338;2023-04-03T06:24:32;2.30;99.90
6879;DHT22;3478;51.462;7.338;2023-04-03T06:29:34;2.30;99.90
6879;DHT22;3478;51.462;7.338;2023-04-03T06:34:39;2.40;99.90
6879;DHT22;3478;51.462;7.338;2023-04-03T06:39:42;2.60;99.90
6879;DHT22;3478;51.462;7.338;2023-04-03T06:44:44;2.70;99.90
6879;DHT22;3478;51.462;7.338;2023-04-03T06:49:47;2.70;99.90
6879;DHT22;3478;51.462;7.338;2023-04-03T06:54:49;2.80;99.90
6879;DHT22;3478;51.462;7.338;2023-04-03T06:59:57;2.90;99.90
6879;DHT22;3478;51.462;7.338;2023-04-03T07:05:00;3.00;99.90
6879;DHT22;3478;51.462;7.338;2023-04-03T07:10:04;3.10;99.90
6879;DHT22;3478;51.462;7.338;2023-04-03T07:15:07;3.10;99.90
6879;DHT22;3478;51.462;7.338;2023-04-03T07:20:11;3.30;99.90
6879;DHT22;3478;51.462;7.338;2023-04-03T07:25:13;3.40;99.90
6879;DHT22;3478;51.462;7.338;2023-04-03T07:30:15;3.60;99.90
6879;DHT22;3478;51.462;7.338;2023-04-03T07:35:19;3.70;99.90
6879;DHT22;3478;51.462;7.338;2023-04-03T07:40:21;3.70;99.90
6879;DHT22;3478;51.462;7.338;2023-04-03T07:45:23;3.90;99.90
6879;DHT22;3478;51.462;7.338;2023-04-03T07:50:26;4.00;99.90
6879;DHT22;3478;51.462;7.338;2023-04-03T07:55:31;4.00;99.90
6879;DHT22;3478;51.462;7.338;2023-04-03T08:00:33;4.00;99.90
6879;DHT22;3478;51.462;7.338;2023-04-03T08:05:38;4.20;99.90
6879;DHT22;3478;51.462;7.338;2023-04-03T08:10:41;4.30;99.90
6879;DHT22;3478;51.462;7.338;2023-04-03T08:15:43;4.60;99.90
6879;DHT22;3478;51.462;7.338;2023-04-03T08:20:47;4.70;99.90
6879;DHT22;3478;51.462;7.338;2023-04-03T08:25:49;4.70;99.90
6879;DHT22;3478;51.462;7.338;2023-04-03T08:30:51;5.00;99.90
6879;DHT22;3478;51.462;7.338;2023-04-03T08:35:54;5.20;99.90
6879;DHT22;3478;51.462;7.338;2023-04-03T08:41:04;5.20;99.90
6879;DHT22;3478;51.462;7.338;2023-04-03T08:46:11;5.40;99.90
6879;DHT22;3478;51.462;7.338;2023-04-03T08:51:19;5.30;99.90
6879;DHT22;3478;51.462;7.338;2023-04-03T08:56:22;5.30;99.90
6879;DHT22;3478;51.462;7.338;2023-04-03T09:01:29;5.60;99.90
6879;DHT22;3478;51.462;7.338;2023-04-03T09:06:33;5.90;99.90
6879;DHT22;3478;51.462;7.338;2023-04-03T09:11:47;5.90;99.90
6879;DHT22;3478;51.462;7.338;2023-04-03T09:16:55;6.10;99.90
6879;DHT22;3478;51.462;7.338;2023-04-03T09:22:13;6.10;99.90
6879;DHT22;3478;51.462;7.338;2023-04-03T09:27:17;6.60;99.90
6879;DHT22;3478;51.462;7.338;2023-04-03T09:32:26;6.70;99.90
6879;DHT22;3478;51.462;7.338;2023-04-03T09:37:39;6.80;99.80
6879;DHT22;3478;51.462;7.338;2023-04-03T09:42:42;6.80;98.10
6879;DHT22;3478;51.462;7.338;2023-04-03T09:47:44;7.20;99.90
6879;DHT22;3478;51.462;7.338;2023-04-03T09:52:49;7.40;97.80
6879;DHT22;3478;51.462;7.338;2023-04-03T09:57:59;7.70;99.20
6879;DHT22;3478;51.462;7.338;2023-04-03T10:03:01;7.80;99.90
6879;DHT22;3478;51.462;7.338;2023-04-03T10:08:10;7.90;97.40
6879;DHT22;3478;51.462;7.338;2023-04-03T10:13:13;8.20;98.20
6879;DHT22;3478;51.462;7.338;2023-04-03T10:18:28;8.50;96.20
6879;DHT22;3478;51.462;7.338;2023-04-03T10:23:37;8.90;95.20
6879;DHT22;3478;51.462;7.338;2023-04-03T10:28:47;8.80;94.10
6879;DHT22;3478;51.462;7.338;2023-04-03T10:33:55;9.30;96.90
6879;DHT22;3478;51.462;7.338;2023-04-03T10:39:04;10.00;94.30
6879;DHT22;3478;51.462;7.338;2023-04-03T10:44:16;10.10;94.00
6879;DHT22;3478;51.462;7.338;2023-04-03T10:49:32;10.20;89.40
6879;DHT22;3478;51.462;7.338;2023-04-03T10:54:44;10.50;88.50
6879;DHT22;3478;51.462;7.338;2023-04-03T10:59:51;10.60;85.60
6879;DHT22;3478;51.462;7.338;2023-04-03T11:04:56;10.90;85.30
6879;DHT22;3478;51.462;7.338;2023-04-03T11:10:05;11.50;82.90
6879;DHT22;3478;51.462;7.338;2023-04-03T11:15:15;11.40;75.20
6879;DHT22;3478;51.462;7.338;2023-04-03T11:20:22;11.60;79.10
6879;DHT22;3478;51.462;7.338;2023-04-03T11:25:30;11.40;77.30
6879;DHT22;3478;51.462;7.338;2023-04-03T11:30:38;12.10;72.40
6879;DHT22;3478;51.462;7.338;2023-04-03T11:35:43;11.80;69.30
6879;DHT22;3478;51.462;7.338;2023-04-03T11:40:49;11.30;69.50
6879;DHT22;3478;51.462;7.338;2023-04-03T11:45:56;11.60;67.80
6879;DHT22;3478;51.462;7.338;2023-04-03T11:51:02;11.80;68.90
6879;DHT22;3478;51.462;7.338;2023-04-03T11:56:33;12.60;69.10
6879;DHT22;3478;51.462;7.338;2023-04-03T12:01:46;13.10;68.20
6879;DHT22;3478;51.462;7.338;2023-04-03T12:12:34;13.50;64.30
6879;DHT22;3478;51.462;7.338;2023-04-03T12:17:36;13.70;61.70
6879;DHT22;3478;51.462;7.338;2023-04-03T12:22:38;13.50;57.90
6879;DHT22;3478;51.462;7.338;2023-04-03T12:28:05;13.50;59.30
6879;DHT22;3478;51.462;7.338;2023-04-03T12:33:23;13.90;58.70
6879;DHT22;3478;51.462;7.338;2023-04-03T12:38:41;14.70;58.30
6879;DHT22;3478;51.462;7.338;2023-04-03T12:43:58;14.80;56.40
6879;DHT22;3478;51.462;7.338;2023-04-03T12:49:01;14.90;55.60
6879;DHT22;3478;51.462;7.338;2023-04-03T12:54:12;15.60;54.50
6879;DHT22;3478;51.462;7.338;2023-04-03T12:59:19;15.30;55.70
6879;DHT22;3478;51.462;7.338;2023-04-03T13:04:21;15.80;57.50
6879;DHT22;3478;51.462;7.338;2023-04-03T13:09:25;15.90;54.10
6879;DHT22;3478;51.462;7.338;2023-04-03T13:14:29;15.60;52.10
6879;DHT22;3478;51.462;7.338;2023-04-03T13:19:33;15.70;52.10
6879;DHT22;3478;51.462;7.338;2023-04-03T13:24:37;15.20;52.00
6879;DHT22;3478;51.462;7.338;2023-04-03T13:29:41;15.30;51.50
6879;DHT22;3478;51.462;7.338;2023-04-03T13:34:44;15.90;53.00
6879;DHT22;3478;51.462;7.338;2023-04-03T13:40:00;17.00;52.80
6879;DHT22;3478;51.462;7.338;2023-04-03T13:45:19;16.40;49.80
6879;DHT22;3478;51.462;7.338;2023-04-03T13:50:23;17.00;51.50
6879;DHT22;3478;51.462;7.338;2023-04-03T13:55:28;16.90;51.00
6879;DHT22;3478;51.462;7.338;2023-04-03T14:00:37;16.10;47.60
6879;DHT22;3478;51.462;7.338;2023-04-03T14:05:39;15.90;51.10
6879;DHT22;3478;51.462;7.338;2023-04-03T14:10:42;16.40;49.40
6879;DHT22;3478;51.462;7.338;2023-04-03T14:15:47;16.40;50.10
6879;DHT22;3478;51.462;7.338;2023-04-03T14:20:51;17.40;49.20
6879;DHT22;3478;51.462;7.338;2023-04-03T14:25:53;17.10;48.80
6879;DHT22;3478;51.462;7.338;2023-04-03T14:30:56;17.10;49.60
6879;DHT22;3478;51.462;7.338;2023-04-03T14:35:58;17.20;48.00
6879;DHT22;3478;51.462;7.338;2023-04-03T14:41:00;17.30;49.10
6879;DHT22;3478;51.462;7.338;2023-04-03T14:46:04;16.70;46.80
6879;DHT22;3478;51.462;7.338;2023-04-03T14:51:06;16.80;48.70
6879;DHT22;3478;51.462;7.338;2023-04-03T14:56:13;17.20;46.60
6879;DHT22;3478;51.462;7.338;2023-04-03T15:01:17;16.90;48.00
6879;DHT22;3478;51.462;7.338;2023-04-03T15:06:19;17.20;48.80
6879;DHT22;3478;51.462;7.338;2023-04-03T15:11:22;18.10;46.70
6879;DHT22;3478;51.462;7.338;2023-04-03T15:16:26;17.50;47.20
6879;DHT22;3478;51.462;7.338;2023-04-03T15:21:28;17.40;48.00
6879;DHT22;3478;51.462;7.338;2023-04-03T15:26:31;17.40;46.20
6879;DHT22;3478;51.462;7.338;2023-04-03T15:31:34;17.10;46.80
6879;DHT22;3478;51.462;7.338;2023-04-03T15:36:36;16.20;46.40
6879;DHT22;3478;51.462;7.338;2023-04-03T15:41:38;16.20;46.50
6879;DHT22;3478;51.462;7.338;2023-04-03T15:46:41;16.70;47.30
6879;DHT22;3478;51.462;7.338;2023-04-03T15:51:43;16.50;48.00
6879;DHT22;3478;51.462;7.338;2023-04-03T15:56:45;17.30;47.50
6879;DHT22;3478;51.462;7.338;2023-04-03T16:01:49;17.50;46.10
6879;DHT22;3478;51.462;7.338;2023-04-03T16:06:52;17.00;45.20
6879;DHT22;3478;51.462;7.338;2023-04-03T16:11:54;16.50;45.50
6879;DHT22;3478;51.462;7.338;2023-04-03T16:16:58;16.40;45.70
6879;DHT22;3478;51.462;7.338;2023-04-03T16:22:00;16.50;45.70
6879;DHT22;3478;51.462;7.338;2023-04-03T16:27:03;16.30;46.60
6879;DHT22;3478;51.462;7.338;2023-04-03T16:32:06;15.90;45.40
6879;DHT22;3478;51.462;7.338;2023-04-03T16:37:08;15.30;46.30
6879;DHT22;3478;51.462;7.338;2023-04-03T16:42:10;15.10;46.70
6879;DHT22;3478;51.462;7.338;2023-04-03T16:47:14;14.60;47.30
6879;DHT22;3478;51.462;7.338;2023-04-03T16:52:19;14.40;47.30
6879;DHT22;3478;51.462;7.338;2023-04-03T16:57:22;14.00;47.00
6879;DHT22;3478;51.462;7.338;2023-04-03T17:02:26;13.60;48.50
6879;DHT22;3478;51.462;7.338;2023-04-03T17:07:29;13.50;47.90
6879;DHT22;3478;51.462;7.338;2023-04-03T17:12:31;13.60;48.30
6879;DHT22;3478;51.462;7.338;2023-04-03T17:17:35;12.80;49.30
6879;DHT22;3478;51.462;7.338;2023-04-03T17:22:37;11.60;50.40
6879;DHT22;3478;51.462;7.338;2023-04-03T17:27:39;10.50;52.10
6879;DHT22;3478;51.462;7.338;2023-04-03T17:32:42;9.70;53.70
6879;DHT22;3478;51.462;7.338;2023-04-03T17:37:44;9.50;55.60
6879;DHT22;3478;51.462;7.338;2023-04-03T17:42:48;9.10;55.70
6879;DHT22;3478;51.462;7.338;2023-04-03T17:47:52;8.90;55.90
6879;DHT22;3478;51.462;7.338;2023-04-03T17:52:53;8.60;55.20
6879;DHT22;3478;51.462;7.338;2023-04-03T17:57:55;8.50;55.30
6879;DHT22;3478;51.462;7.338;2023-04-03T18:02:59;8.30;56.30
6879;DHT22;3478;51.462;7.338;2023-04-03T18:08:01;8.20;57.10
6879;DHT22;3478;51.462;7.338;2023-04-03T18:13:03;8.20;57.00
6879;DHT22;3478;51.462;7.338;2023-04-03T18:18:07;8.10;57.20
6879;DHT22;3478;51.462;7.338;2023-04-03T18:23:09;7.90;58.00
6879;DHT22;3478;51.462;7.338;2023-04-03T18:28:11;7.80;58.50
6879;DHT22;3478;51.462;7.338;2023-04-03T18:33:15;7.80;58.50
6879;DHT22;3478;51.462;7.338;2023-04-03T18:38:17;7.70;59.20
6879;DHT22;3478;51.462;7.338;2023-04-03T18:43:18;7.70;59.80
6879;DHT22;3478;51.462;7.338;2023-04-03T18:48:22;7.50;59.80
6879;DHT22;3478;51.462;7.338;2023-04-03T18:53:24;7.40;60.60
6879;DHT22;3478;51.462;7.338;2023-04-03T18:58:26;7.20;60.90
6879;DHT22;3478;51.462;7.338;2023-04-03T19:03:29;7.10;62.20
6879;DHT22;3478;51.462;7.338;2023-04-03T19:08:32;6.90;63.90
6879;DHT22;3478;51.462;7.338;2023-04-03T19:13:34;6.80;64.00
6879;DHT22;3478;51.462;7.338;2023-04-03T19:18:38;6.80;64.70
6879;DHT22;3478;51.462;7.338;2023-04-03T19:23:40;6.70;64.40
6879;DHT22;3478;51.462;7.338;2023-04-03T19:28:44;6.80;64.80
6879;DHT22;3478;51.462;7.338;2023-04-03T19:33:48;6.70;64.90
6879;DHT22;3478;51.462;7.338;2023-04-03T19:38:51;6.60;65.20
6879;DHT22;3478;51.462;7.338;2023-04-03T19:43:54;6.50;66.30
6879;DHT22;3478;51.462;7.338;2023-04-03T19:48:58;6.50;65.10
6879;DHT22;3478;51.462;7.338;2023-04-03T19:54:00;6.40;68.10
6879;DHT22;3478;51.462;7.338;2023-04-03T19:59:01;6.30;67.60
6879;DHT22;3478;51.462;7.338;2023-04-03T20:04:05;6.10;69.80
6879;DHT22;3478;51.462;7.338;2023-04-03T20:09:07;6.00;69.20
6879;DHT22;3478;51.462;7.338;2023-04-03T20:14:09;5.90;69.70
6879;DHT22;3478;51.462;7.338;2023-04-03T20:19:13;5.80;70.20
6879;DHT22;3478;51.462;7.338;2023-04-03T20:24:16;5.80;71.10
6879;DHT22;3478;51.462;7.338;2023-04-03T20:29:18;5.70;72.20
6879;DHT22;3478;51.462;7.338;2023-04-03T20:34:21;5.60;71.50
6879;DHT22;3478;51.462;7.338;2023-04-03T20:39:23;5.50;72.30
6879;DHT22;3478;51.462;7.338;2023-04-03T20:44:25;5.50;73.10
6879;DHT22;3478;51.462;7.338;2023-04-03T20:49:28;5.40;73.50
6879;DHT22;3478;51.462;7.338;2023-04-03T20:54:30;5.40;73.70
6879;DHT22;3478;51.462;7.338;2023-04-03T20:59:33;5.40;74.10
6879;DHT22;3478;51.462;7.338;2023-04-03T21:04:42;5.20;74.20
6879;DHT22;3478;51.462;7.338;2023-04-03T21:20:52;4.90;76.50
6879;DHT22;3478;51.462;7.338;2023-04-03T21:25:54;4.80;76.30
6879;DHT22;3478;51.462;7.338;2023-04-03T21:30:56;4.80;78.70
6879;DHT22;3478;51.462;7.338;2023-04-03T21:35:59;4.60;78.90
6879;DHT22;3478;51.462;7.338;2023-04-03T21:41:02;4.60;79.80
6879;DHT22;3478;51.462;7.338;2023-04-03T21:46:04;4.60;79.10
6879;DHT22;3478;51.462;7.338;2023-04-03T21:51:07;4.60;80.00
6879;DHT22;3478;51.462;7.338;2023-04-03T21:56:10;4.60;78.80
6879;DHT22;3478;51.462;7.338;2023-04-03T22:01:13;4.50;79.10
6879;DHT22;3478;51.462;7.338;2023-04-03T22:06:17;4.50;79.40
6879;DHT22;3478;51.462;7.338;2023-04-03T22:11:20;4.60;79.30
6879;DHT22;3478;51.462;7.338;2023-04-03T22:16:24;4.50;80.20
6879;DHT22;3478;51.462;7.338;2023-04-03T22:21:28;4.40;79.80
6879;DHT22;3478;51.462;7.338;2023-04-03T22:26:30;4.40;81.00
6879;DHT22;3478;51.462;7.338;2023-04-03T22:31:32;4.30;81.30
6879;DHT22;3478;51.462;7.338;2023-04-03T22:36:36;4.30;81.10
6879;DHT22;3478;51.462;7.338;2023-04-03T22:41:38;4.20;82.10
6879;DHT22;3478;51.462;7.338;2023-04-03T22:46:40;4.10;83.90
6879;DHT22;3478;51.462;7.338;2023-04-03T22:51:43;4.10;83.80
6879;DHT22;3478;51.462;7.338;2023-04-03T22:56:45;4.00;83.50
6879;DHT22;3478;51.462;7.338;2023-04-03T23:01:47;4.10;83.70
6879;DHT22;3478;51.462;7.338;2023-04-03T23:06:50;4.00;83.70
6879;DHT22;3478;51.462;7.338;2023-04-03T23:11:52;4.00;83.90
6879;DHT22;3478;51.462;7.338;2023-04-03T23:16:54;3.90;83.40
6879;DHT22;3478;51.462;7.338;2023-04-03T23:21:57;3.90;82.90
6879;DHT22;3478;51.462;7.338;2023-04-03T23:26:59;3.80;81.90
6879;DHT22;3478;51.462;7.338;2023-04-03T23:32:01;3.70;81.60
6879;DHT22;3478;51.462;7.338;2023-04-03T23:37:04;3.50;81.70
6879;DHT22;3478;51.462;7.338;2023-04-03T23:42:07;3.50;82.80
6879;DHT22;3478;51.462;7.338;2023-04-03T23:47:11;3.60;83.90
6879;DHT22;3478;51.462;7.338;2023-04-03T23:52:14;3.50;84.10
6879;DHT22;3478;51.462;7.338;2023-04-03T23:57:16;3.40;84.70
